Boscobel, WI (53805)

1:30 AM CDT on October 01, 2016 (GMT -0500)
Boscobel | | Change Station
Active Advisory: Flood Warning

Elev 673 ft 43.16 °N, 90.68 °W | Updated 27 minutes ago

Overcast
Overcast
60 °F
Feels Like 60 °F
N
0
Wind Variable Wind from North

Today
High -- | Low -- °F
--% Chance of Precip.
Yesterday
High -- | Low -- °F
Precip. -- in
Pressure 30.13 in
Visibility 5.0 miles
Clouds Overcast 900 ft
Dew Point 58 °F
Humidity 93%
Rainfall 0.00 in
Snow Depth Not available.
7:00 AM 6:42 PM
New Moon, 0% visible
SPECI KOVS 010603Z AUTO 00000KT 5SM BR OVC009 16/14 A3013 RMK AO2 RAE0558 CIG 007V013 P0001 T01560144
Pressure 30.13 in
Visibility 5.0 miles
Clouds Overcast 900 ft
Dew Point 58 °F
Humidity 93%
Rainfall 0.00 in
Snow Depth Not available.
7:00 AM 6:42 PM
New Moon, 0% visible
SPECI KOVS 010603Z AUTO 00000KT 5SM BR OVC009 16/14 A3013 RMK AO2 RAE0558 CIG 007V013 P0001 T01560144

10-Day Weather Forecast

Almanac

Astronomy

Oct. 01, 2016 Rise Set
Actual Time
Civil Twilight
Nautical Twilight
Astronomical Twilight
Moon
Length of Visible Light
Length of Day
Tomorrow will be .
, % of the Moon is Illuminated

Today's Extremes

State Highs State Lows

Community

WunderPhotos

Upload Photos

1,942,898 photos uploaded!

WunderBlog® & News

Nearby

Air Quality

  Air Quality AQ Index Pollutant
Not available.

Snow Depth

Station Depth Elevation

Earthquake Activity

City Distance Mag. Time & Date
Minimum magnitude displayed is 2.5.

Coastal Water Temperatures

Place Temperature

Stations

Nearby Weather Stations

Station Location Temp. Windchill Dew Point Humidity Wind Precip. Elev Updated Type
                   

Watches & Warnings

Flood Warning
Issued: 8:53 PM CDT Sep. 30, 2016 – National Weather Service

The Flood Warning continues for
the Mississippi River at Guttenberg dam 10.
* Until Saturday evening... or until the warning is cancelled.
* At 8:00 PM Friday the stage was 15.0 feet.
* Flood stage is 15.0 feet.
* Forecast... the river will continue to fall... dropping below flood
stage by Saturday morning.
* Impact... at 15.0 feet... minor lowland flooding begins to occur.


Lat... Lon 4300 9111 4270 9090 4265 9090 4271 9112 4298 9119


Hollan



853 PM CDT Fri Sep 30 2016

The Flood Warning continues for
the Mississippi River at McGregor.
* Until Monday morning... or until the warning is cancelled.
* At 8:15 PM Friday the stage was 16.5 feet.
* Flood stage is 16.0 feet.
* Minor flooding is occurring.
* Forecast... the river will continue to fall... dropping below flood
stage Sunday.
* Impact... at 16.5 feet... water may begin to go over the Road covering
part of Highway c near Highway 18.


Lat... Lon 4321 9109 4300 9111 4298 9119 4316 9121 4324 9115